sensor_id;sensor_type;location;lat;lon;timestamp;pressure;altitude;pressure_sealevel;temperature;humidity
77739;BME280;66904;59.926;30.404;2023-11-21T00:03:34;101906.53;;;-0.56;65.32
77739;BME280;66904;59.926;30.404;2023-11-21T00:08:46;101901.28;;;-0.47;65.63
77739;BME280;66904;59.926;30.404;2023-11-21T00:13:56;101900.28;;;-0.37;65.32
77739;BME280;66904;59.926;30.404;2023-11-21T00:19:08;101901.13;;;-0.33;64.94
77739;BME280;66904;59.926;30.404;2023-11-21T00:24:18;101896.78;;;-0.36;64.86
77739;BME280;66904;59.926;30.404;2023-11-21T00:29:29;101899.47;;;-0.42;64.84
77739;BME280;66904;59.926;30.404;2023-11-21T00:34:40;101908.94;;;-0.35;65.14
77739;BME280;66904;59.926;30.404;2023-11-21T00:39:50;101914.13;;;-0.33;65.06
77739;BME280;66904;59.926;30.404;2023-11-21T00:45:01;101910.59;;;-0.29;65.15
77739;BME280;66904;59.926;30.404;2023-11-21T00:50:14;101927.06;;;-0.27;64.89
77739;BME280;66904;59.926;30.404;2023-11-21T00:55:26;101918.47;;;-0.35;64.81
77739;BME280;66904;59.926;30.404;2023-11-21T01:00:38;101932.31;;;-0.36;65.02
77739;BME280;66904;59.926;30.404;2023-11-21T01:05:50;101940.25;;;-0.47;65.05
77739;BME280;66904;59.926;30.404;2023-11-21T01:11:00;101941.25;;;-0.62;65.31
77739;BME280;66904;59.926;30.404;2023-11-21T01:16:11;101940.38;;;-0.62;65.42
77739;BME280;66904;59.926;30.404;2023-11-21T01:21:22;101940.44;;;-0.67;64.74
77739;BME280;66904;59.926;30.404;2023-11-21T01:26:33;101944.75;;;-0.69;65.26
77739;BME280;66904;59.926;30.404;2023-11-21T01:31:44;101949.09;;;-0.68;65.58
77739;BME280;66904;59.926;30.404;2023-11-21T01:36:55;101952.53;;;-0.64;65.02
77739;BME280;66904;59.926;30.404;2023-11-21T01:42:06;101947.38;;;-0.67;65.26
77739;BME280;66904;59.926;30.404;2023-11-21T01:47:18;101936.09;;;-0.69;65.33
77739;BME280;66904;59.926;30.404;2023-11-21T01:52:29;101947.31;;;-0.63;65.42
77739;BME280;66904;59.926;30.404;2023-11-21T01:57:40;101960.22;;;-0.54;65.22
77739;BME280;66904;59.926;30.404;2023-11-21T02:02:51;101956.72;;;-0.48;65.19
77739;BME280;66904;59.926;30.404;2023-11-21T02:08:02;101948.97;;;-0.54;65.27
77739;BME280;66904;59.926;30.404;2023-11-21T02:13:13;101955.06;;;-0.58;65.32
77739;BME280;66904;59.926;30.404;2023-11-21T02:18:24;101947.34;;;-0.64;65.79
77739;BME280;66904;59.926;30.404;2023-11-21T02:23:35;101950.78;;;-0.64;65.44
77739;BME280;66904;59.926;30.404;2023-11-21T02:28:46;101972.34;;;-0.54;65.56
77739;BME280;66904;59.926;30.404;2023-11-21T02:33:56;101976.66;;;-0.52;65.30
77739;BME280;66904;59.926;30.404;2023-11-21T02:39:07;101964.50;;;-0.46;65.46
77739;BME280;66904;59.926;30.404;2023-11-21T02:44:18;101965.28;;;-0.37;65.25
77739;BME280;66904;59.926;30.404;2023-11-21T02:49:29;101966.16;;;-0.39;65.23
77739;BME280;66904;59.926;30.404;2023-11-21T02:54:40;101960.97;;;-0.42;65.66
77739;BME280;66904;59.926;30.404;2023-11-21T02:59:52;101961.84;;;-0.40;65.54
77739;BME280;66904;59.926;30.404;2023-11-21T03:05:03;101960.94;;;-0.39;65.36
77739;BME280;66904;59.926;30.404;2023-11-21T03:10:15;101981.66;;;-0.29;65.41
77739;BME280;66904;59.926;30.404;2023-11-21T03:15:26;101982.50;;;-0.28;65.69
77739;BME280;66904;59.926;30.404;2023-11-21T03:20:37;101996.34;;;-0.26;65.29
77739;BME280;66904;59.926;30.404;2023-11-21T03:25:48;101992.06;;;-0.30;65.55
77739;BME280;66904;59.926;30.404;2023-11-21T03:30:59;102009.41;;;-0.31;65.99
77739;BME280;66904;59.926;30.404;2023-11-21T03:36:10;102009.34;;;-0.26;65.18
77739;BME280;66904;59.926;30.404;2023-11-21T03:41:21;102004.19;;;-0.29;65.73
77739;BME280;66904;59.926;30.404;2023-11-21T03:46:32;101999.84;;;-0.29;65.14
77739;BME280;66904;59.926;30.404;2023-11-21T03:51:43;102004.19;;;-0.29;65.16
77739;BME280;66904;59.926;30.404;2023-11-21T03:56:53;102003.31;;;-0.30;64.74
77739;BME280;66904;59.926;30.404;2023-11-21T04:02:04;102018.88;;;-0.25;65.44
77739;BME280;66904;59.926;30.404;2023-11-21T04:07:15;102017.16;;;-0.26;65.47
77739;BME280;66904;59.926;30.404;2023-11-21T04:12:26;102019.81;;;-0.32;65.23
77739;BME280;66904;59.926;30.404;2023-11-21T04:17:36;102032.91;;;-0.44;65.57
77739;BME280;66904;59.926;30.404;2023-11-21T04:22:47;102040.75;;;-0.52;65.65
77739;BME280;66904;59.926;30.404;2023-11-21T04:27:59;102062.38;;;-0.44;65.02
77739;BME280;66904;59.926;30.404;2023-11-21T04:33:09;102078.00;;;-0.52;65.30
77739;BME280;66904;59.926;30.404;2023-11-21T04:38:20;102089.34;;;-0.60;65.09
77739;BME280;66904;59.926;30.404;2023-11-21T04:43:31;102078.97;;;-0.66;65.46
77739;BME280;66904;59.926;30.404;2023-11-21T04:48:42;102084.22;;;-0.75;64.95
77739;BME280;66904;59.926;30.404;2023-11-21T04:53:52;102087.72;;;-0.81;65.13
77739;BME280;66904;59.926;30.404;2023-11-21T04:59:03;102085.16;;;-0.85;65.30
77739;BME280;66904;59.926;30.404;2023-11-21T05:04:15;102079.16;;;-0.93;65.32
77739;BME280;66904;59.926;30.404;2023-11-21T05:09:25;102085.25;;;-1.00;65.34
77739;BME280;66904;59.926;30.404;2023-11-21T05:14:36;102078.38;;;-1.11;65.49
77739;BME280;66904;59.926;30.404;2023-11-21T05:19:47;102097.41;;;-1.10;65.33
77739;BME280;66904;59.926;30.404;2023-11-21T05:24:59;102094.84;;;-1.16;65.48
77739;BME280;66904;59.926;30.404;2023-11-21T05:30:10;102108.66;;;-1.14;65.47
77739;BME280;66904;59.926;30.404;2023-11-21T05:35:22;102106.94;;;-1.18;65.32
77739;BME280;66904;59.926;30.404;2023-11-21T05:40:33;102119.94;;;-1.20;65.27
77739;BME280;66904;59.926;30.404;2023-11-21T05:45:44;102123.41;;;-1.24;65.49
77739;BME280;66904;59.926;30.404;2023-11-21T05:50:55;102132.94;;;-1.29;65.50
77739;BME280;66904;59.926;30.404;2023-11-21T05:56:06;102145.06;;;-1.34;65.49
77739;BME280;66904;59.926;30.404;2023-11-21T06:01:16;102155.44;;;-1.35;65.50
77739;BME280;66904;59.926;30.404;2023-11-21T06:06:27;102154.59;;;-1.42;65.38
77739;BME280;66904;59.926;30.404;2023-11-21T06:11:38;102177.09;;;-1.42;65.24
77739;BME280;66904;59.926;30.404;2023-11-21T06:16:49;102181.41;;;-1.41;65.67
77739;BME280;66904;59.926;30.404;2023-11-21T06:22:01;102185.75;;;-1.46;65.60
77739;BME280;66904;59.926;30.404;2023-11-21T06:27:12;102194.41;;;-1.50;65.66
77739;BME280;66904;59.926;30.404;2023-11-21T06:32:23;102191.81;;;-1.55;65.59
77739;BME280;66904;59.926;30.404;2023-11-21T06:37:33;102202.19;;;-1.52;65.58
77739;BME280;66904;59.926;30.404;2023-11-21T06:42:44;102213.44;;;-1.47;65.58
77739;BME280;66904;59.926;30.404;2023-11-21T06:47:56;102208.25;;;-1.36;65.57
77739;BME280;66904;59.926;30.404;2023-11-21T06:53:07;102208.22;;;-1.38;65.23
77739;BME280;66904;59.926;30.404;2023-11-21T06:58:18;102230.72;;;-1.28;65.10
77739;BME280;66904;59.926;30.404;2023-11-21T07:03:29;102227.25;;;-1.21;65.16
77739;BME280;66904;59.926;30.404;2023-11-21T07:08:40;102225.50;;;-1.19;64.74
77739;BME280;66904;59.926;30.404;2023-11-21T07:13:51;102227.22;;;-1.25;64.73
77739;BME280;66904;59.926;30.404;2023-11-21T07:19:03;102228.97;;;-1.32;64.47
77739;BME280;66904;59.926;30.404;2023-11-21T07:24:16;102235.03;;;-1.34;64.38
77739;BME280;66904;59.926;30.404;2023-11-21T07:29:27;102228.97;;;-1.29;64.25
77739;BME280;66904;59.926;30.404;2023-11-21T07:34:40;102241.06;;;-1.22;64.37
77739;BME280;66904;59.926;30.404;2023-11-21T07:39:54;102244.56;;;-1.24;63.91
77739;BME280;66904;59.926;30.404;2023-11-21T07:45:07;102257.53;;;-1.27;64.18
77739;BME280;66904;59.926;30.404;2023-11-21T07:50:18;102261.84;;;-1.17;64.44
77739;BME280;66904;59.926;30.404;2023-11-21T07:55:29;102260.94;;;-1.06;63.73
77739;BME280;66904;59.926;30.404;2023-11-21T08:00:42;102266.13;;;-0.92;63.96
77739;BME280;66904;59.926;30.404;2023-11-21T08:05:54;102267.81;;;-0.82;63.66
77739;BME280;66904;59.926;30.404;2023-11-21T08:11:05;102258.28;;;-0.74;63.64
77739;BME280;66904;59.926;30.404;2023-11-21T08:16:16;102249.63;;;-0.71;63.32
77739;BME280;66904;59.926;30.404;2023-11-21T08:21:27;102245.25;;;-0.69;63.28
77739;BME280;66904;59.926;30.404;2023-11-21T08:26:39;102244.41;;;-0.67;63.18
77739;BME280;66904;59.926;30.404;2023-11-21T08:31:50;102248.69;;;-0.60;63.06
77739;BME280;66904;59.926;30.404;2023-11-21T08:37:01;102246.09;;;-0.54;63.59
77739;BME280;66904;59.926;30.404;2023-11-21T08:42:11;102250.38;;;-0.49;63.09
77739;BME280;66904;59.926;30.404;2023-11-21T08:47:22;102249.53;;;-0.48;63.51
77739;BME280;66904;59.926;30.404;2023-11-21T08:52:34;102247.81;;;-0.54;63.39
77739;BME280;66904;59.926;30.404;2023-11-21T08:57:47;102246.94;;;-0.56;63.48
77739;BME280;66904;59.926;30.404;2023-11-21T09:02:58;102240.91;;;-0.61;62.67
77739;BME280;66904;59.926;30.404;2023-11-21T09:08:09;102252.22;;;-0.70;63.46
77739;BME280;66904;59.926;30.404;2023-11-21T09:13:19;102257.38;;;-0.62;62.96
77739;BME280;66904;59.926;30.404;2023-11-21T09:18:30;102251.38;;;-0.76;62.48
77739;BME280;66904;59.926;30.404;2023-11-21T09:23:43;102256.59;;;-0.88;63.11
77739;BME280;66904;59.926;30.404;2023-11-21T09:28:55;102254.00;;;-0.99;62.27
77739;BME280;66904;59.926;30.404;2023-11-21T09:34:07;102256.66;;;-1.14;62.93
77739;BME280;66904;59.926;30.404;2023-11-21T09:39:17;102258.38;;;-1.15;62.83
77739;BME280;66904;59.926;30.404;2023-11-21T09:44:35;102260.06;;;-1.06;63.17
77739;BME280;66904;59.926;30.404;2023-11-21T09:49:48;102267.84;;;-0.89;63.58
77739;BME280;66904;59.926;30.404;2023-11-21T09:55:00;102260.06;;;-0.83;62.86
77739;BME280;66904;59.926;30.404;2023-11-21T10:00:15;102276.50;;;-0.87;63.01
77739;BME280;66904;59.926;30.404;2023-11-21T10:05:28;102254.88;;;-0.95;63.04
77739;BME280;66904;59.926;30.404;2023-11-21T10:10:44;102281.72;;;-0.98;63.51
77739;BME280;66904;59.926;30.404;2023-11-21T10:15:56;102270.47;;;-0.98;64.00
77739;BME280;66904;59.926;30.404;2023-11-21T10:21:10;102273.91;;;-0.84;63.99
77739;BME280;66904;59.926;30.404;2023-11-21T10:26:22;102274.75;;;-0.76;63.78
77739;BME280;66904;59.926;30.404;2023-11-21T10:31:34;102280.81;;;-0.77;63.90
77739;BME280;66904;59.926;30.404;2023-11-21T10:36:46;102281.69;;;-0.80;63.99
77739;BME280;66904;59.926;30.404;2023-11-21T10:41:57;102281.69;;;-0.77;63.97
77739;BME280;66904;59.926;30.404;2023-11-21T10:47:09;102284.28;;;-0.89;64.52
77739;BME280;66904;59.926;30.404;2023-11-21T10:52:26;102292.94;;;-0.85;64.74
77739;BME280;66904;59.926;30.404;2023-11-21T10:57:37;102301.56;;;-0.65;64.78
77739;BME280;66904;59.926;30.404;2023-11-21T11:02:51;102297.22;;;-0.66;64.68
77739;BME280;66904;59.926;30.404;2023-11-21T11:08:08;102300.69;;;-0.61;64.99
77739;BME280;66904;59.926;30.404;2023-11-21T11:13:19;102298.91;;;-0.52;64.83
77739;BME280;66904;59.926;30.404;2023-11-21T11:18:30;102307.59;;;-0.54;64.52
77739;BME280;66904;59.926;30.404;2023-11-21T11:35:01;102286.00;;;-0.77;65.16
77739;BME280;66904;59.926;30.404;2023-11-21T11:40:14;102299.88;;;-0.80;65.14
77739;BME280;66904;59.926;30.404;2023-11-21T11:45:32;102300.72;;;-0.73;65.59
77739;BME280;66904;59.926;30.404;2023-11-21T11:51:02;102295.50;;;-0.67;66.21
77739;BME280;66904;59.926;30.404;2023-11-21T11:56:23;102303.25;;;-0.47;65.23
77739;BME280;66904;59.926;30.404;2023-11-21T12:01:36;102301.50;;;-0.56;65.20
77739;BME280;66904;59.926;30.404;2023-11-21T12:06:47;102298.97;;;-0.73;65.14
77739;BME280;66904;59.926;30.404;2023-11-21T12:11:58;102299.84;;;-0.83;65.93
77739;BME280;66904;59.926;30.404;2023-11-21T12:17:12;102303.34;;;-0.81;65.65
77739;BME280;66904;59.926;30.404;2023-11-21T12:22:23;102308.56;;;-0.93;65.72
77739;BME280;66904;59.926;30.404;2023-11-21T12:27:34;102312.00;;;-0.80;66.03
77739;BME280;66904;59.926;30.404;2023-11-21T12:32:49;102312.84;;;-0.83;66.01
77739;BME280;66904;59.926;30.404;2023-11-21T12:38:03;102324.09;;;-0.78;66.19
77739;BME280;66904;59.926;30.404;2023-11-21T12:43:15;102323.25;;;-0.78;66.59
77739;BME280;66904;59.926;30.404;2023-11-21T12:48:28;102335.38;;;-0.70;66.30
77739;BME280;66904;59.926;30.404;2023-11-21T12:53:41;102336.19;;;-0.66;65.96
77739;BME280;66904;59.926;30.404;2023-11-21T12:58:54;102334.47;;;-0.61;66.32
77739;BME280;66904;59.926;30.404;2023-11-21T13:04:07;102333.59;;;-0.59;66.16
77739;BME280;66904;59.926;30.404;2023-11-21T13:09:21;102331.00;;;-0.62;66.55
77739;BME280;66904;59.926;30.404;2023-11-21T13:14:32;102334.44;;;-0.63;66.51
77739;BME280;66904;59.926;30.404;2023-11-21T13:19:44;102335.34;;;-0.64;66.37
77739;BME280;66904;59.926;30.404;2023-11-21T13:24:57;102331.88;;;-0.64;66.38
77739;BME280;66904;59.926;30.404;2023-11-21T13:30:09;102334.44;;;-0.60;65.71
77739;BME280;66904;59.926;30.404;2023-11-21T13:35:20;102343.13;;;-0.62;65.90
77739;BME280;66904;59.926;30.404;2023-11-21T13:40:32;102357.88;;;-0.67;65.71
77739;BME280;66904;59.926;30.404;2023-11-21T13:45:45;102342.28;;;-0.70;65.54
77739;BME280;66904;59.926;30.404;2023-11-21T13:50:56;102349.19;;;-0.66;65.21
77739;BME280;66904;59.926;30.404;2023-11-21T13:56:14;102362.16;;;-0.66;65.15
77739;BME280;66904;59.926;30.404;2023-11-21T14:01:29;102363.06;;;-0.70;65.46
77739;BME280;66904;59.926;30.404;2023-11-21T14:06:40;102368.25;;;-0.66;65.80
77739;BME280;66904;59.926;30.404;2023-11-21T14:11:58;102386.44;;;-0.54;65.04
77739;BME280;66904;59.926;30.404;2023-11-21T14:17:10;102378.63;;;-0.58;64.92
77739;BME280;66904;59.926;30.404;2023-11-21T14:22:21;102388.19;;;-0.63;65.55
77739;BME280;66904;59.926;30.404;2023-11-21T14:27:32;102381.22;;;-0.60;65.25
77739;BME280;66904;59.926;30.404;2023-11-21T14:32:43;102382.09;;;-0.50;64.94
77739;BME280;66904;59.926;30.404;2023-11-21T14:37:54;102389.00;;;-0.55;65.09
77739;BME280;66904;59.926;30.404;2023-11-21T14:43:06;102395.06;;;-0.45;65.49
77739;BME280;66904;59.926;30.404;2023-11-21T14:48:16;102395.06;;;-0.44;64.92
77739;BME280;66904;59.926;30.404;2023-11-21T14:53:38;102397.63;;;-0.39;65.33
77739;BME280;66904;59.926;30.404;2023-11-21T14:59:04;102415.84;;;-0.38;64.98
77739;BME280;66904;59.926;30.404;2023-11-21T15:04:26;102409.78;;;-0.43;64.39
77739;BME280;66904;59.926;30.404;2023-11-21T15:09:47;102402.88;;;-0.50;64.11
77739;BME280;66904;59.926;30.404;2023-11-21T15:15:00;102390.78;;;-0.74;64.63
77739;BME280;66904;59.926;30.404;2023-11-21T15:20:11;102399.44;;;-0.69;65.13
77739;BME280;66904;59.926;30.404;2023-11-21T15:25:29;102404.63;;;-0.69;64.93
77739;BME280;66904;59.926;30.404;2023-11-21T15:30:39;102408.09;;;-0.65;65.25
77739;BME280;66904;59.926;30.404;2023-11-21T15:35:50;102415.03;;;-0.70;65.25
77739;BME280;66904;59.926;30.404;2023-11-21T15:41:01;102409.81;;;-0.66;64.82
77739;BME280;66904;59.926;30.404;2023-11-21T15:46:12;102421.06;;;-0.56;63.83
77739;BME280;66904;59.926;30.404;2023-11-21T15:51:23;102421.06;;;-0.56;63.22
77739;BME280;66904;59.926;30.404;2023-11-21T15:56:33;102421.97;;;-0.68;63.05
77739;BME280;66904;59.926;30.404;2023-11-21T16:01:45;102428.88;;;-0.82;63.66
77739;BME280;66904;59.926;30.404;2023-11-21T16:06:59;102437.53;;;-0.83;64.25
77739;BME280;66904;59.926;30.404;2023-11-21T16:12:10;102434.94;;;-0.71;63.13
77739;BME280;66904;59.926;30.404;2023-11-21T16:17:22;102434.06;;;-0.73;61.75
77739;BME280;66904;59.926;30.404;2023-11-21T16:22:33;102423.69;;;-0.89;62.09
77739;BME280;66904;59.926;30.404;2023-11-21T16:27:44;102427.16;;;-0.90;61.47
77739;BME280;66904;59.926;30.404;2023-11-21T16:32:55;102421.09;;;-1.01;61.91
77739;BME280;66904;59.926;30.404;2023-11-21T16:38:06;102429.72;;;-1.09;61.98
77739;BME280;66904;59.926;30.404;2023-11-21T16:43:17;102425.41;;;-1.17;61.85
77739;BME280;66904;59.926;30.404;2023-11-21T16:48:28;102427.13;;;-1.15;61.24
77739;BME280;66904;59.926;30.404;2023-11-21T16:53:38;102432.31;;;-1.25;61.55
77739;BME280;66904;59.926;30.404;2023-11-21T16:58:52;102451.38;;;-1.20;61.15
77739;BME280;66904;59.926;30.404;2023-11-21T17:04:03;102438.34;;;-1.31;61.62
77739;BME280;66904;59.926;30.404;2023-11-21T17:09:14;102440.09;;;-1.31;61.59
77739;BME280;66904;59.926;30.404;2023-11-21T17:14:28;102437.47;;;-1.40;61.17
77739;BME280;66904;59.926;30.404;2023-11-21T17:19:39;102440.94;;;-1.41;60.59
77739;BME280;66904;59.926;30.404;2023-11-21T17:24:50;102457.34;;;-1.53;60.80
77739;BME280;66904;59.926;30.404;2023-11-21T17:30:01;102445.22;;;-1.54;59.94
77739;BME280;66904;59.926;30.404;2023-11-21T17:35:13;102439.19;;;-1.53;59.38
77739;BME280;66904;59.926;30.404;2023-11-21T17:40:25;102449.53;;;-1.64;59.85
77739;BME280;66904;59.926;30.404;2023-11-21T17:45:36;102440.00;;;-1.59;60.31
77739;BME280;66904;59.926;30.404;2023-11-21T17:50:47;102440.03;;;-1.60;59.90
77739;BME280;66904;59.926;30.404;2023-11-21T17:55:58;102438.28;;;-1.55;59.73
77739;BME280;66904;59.926;30.404;2023-11-21T18:01:09;102446.06;;;-1.55;59.88
77739;BME280;66904;59.926;30.404;2023-11-21T18:06:20;102452.97;;;-1.56;60.79
77739;BME280;66904;59.926;30.404;2023-11-21T18:11:31;102450.41;;;-1.48;60.71
77739;BME280;66904;59.926;30.404;2023-11-21T18:16:42;102454.75;;;-1.45;60.47
77739;BME280;66904;59.926;30.404;2023-11-21T18:21:53;102444.38;;;-1.48;60.75
77739;BME280;66904;59.926;30.404;2023-11-21T18:27:04;102451.31;;;-1.43;61.13
77739;BME280;66904;59.926;30.404;2023-11-21T18:32:15;102454.81;;;-1.33;59.93
77739;BME280;66904;59.926;30.404;2023-11-21T18:37:26;102460.00;;;-1.33;59.35
77739;BME280;66904;59.926;30.404;2023-11-21T18:42:37;102460.84;;;-1.40;60.18
77739;BME280;66904;59.926;30.404;2023-11-21T18:47:47;102464.31;;;-1.40;59.33
77739;BME280;66904;59.926;30.404;2023-11-21T18:52:59;102468.53;;;-1.62;60.16
77739;BME280;66904;59.926;30.404;2023-11-21T18:58:11;102485.00;;;-1.53;60.00
77739;BME280;66904;59.926;30.404;2023-11-21T19:03:22;102494.53;;;-1.52;60.44
77739;BME280;66904;59.926;30.404;2023-11-21T19:08:33;102482.38;;;-1.61;60.66
77739;BME280;66904;59.926;30.404;2023-11-21T19:13:43;102487.59;;;-1.52;60.85
77739;BME280;66904;59.926;30.404;2023-11-21T19:18:54;102490.22;;;-1.41;61.20
77739;BME280;66904;59.926;30.404;2023-11-21T19:24:06;102491.94;;;-1.45;61.18
77739;BME280;66904;59.926;30.404;2023-11-21T19:29:17;102494.50;;;-1.56;61.15
77739;BME280;66904;59.926;30.404;2023-11-21T19:34:28;102499.59;;;-1.78;61.47
77739;BME280;66904;59.926;30.404;2023-11-21T19:39:40;102503.84;;;-1.91;61.85
77739;BME280;66904;59.926;30.404;2023-11-21T19:44:51;102498.63;;;-2.00;61.97
77739;BME280;66904;59.926;30.404;2023-11-21T19:50:01;102516.75;;;-2.01;62.52
77739;BME280;66904;59.926;30.404;2023-11-21T19:55:14;102523.66;;;-2.02;62.76
77739;BME280;66904;59.926;30.404;2023-11-21T20:00:26;102530.59;;;-1.99;62.35
77739;BME280;66904;59.926;30.404;2023-11-21T20:05:39;102523.72;;;-1.96;62.54
77739;BME280;66904;59.926;30.404;2023-11-21T20:10:50;102515.94;;;-1.96;62.58
77739;BME280;66904;59.926;30.404;2023-11-21T20:16:01;102536.72;;;-1.90;63.18
77739;BME280;66904;59.926;30.404;2023-11-21T20:21:12;102528.13;;;-1.83;63.33
77739;BME280;66904;59.926;30.404;2023-11-21T20:26:28;102535.94;;;-1.71;63.08
77739;BME280;66904;59.926;30.404;2023-11-21T20:31:39;102536.81;;;-1.70;63.04
77739;BME280;66904;59.926;30.404;2023-11-21T20:36:51;102543.78;;;-1.63;63.05
77739;BME280;66904;59.926;30.404;2023-11-21T20:42:02;102539.41;;;-1.66;63.10
77739;BME280;66904;59.926;30.404;2023-11-21T20:47:14;102539.47;;;-1.61;63.45
77739;BME280;66904;59.926;30.404;2023-11-21T20:52:25;102551.59;;;-1.54;62.98
77739;BME280;66904;59.926;30.404;2023-11-21T20:57:36;102543.75;;;-1.65;63.03
77739;BME280;66904;59.926;30.404;2023-11-21T21:02:46;102542.00;;;-1.70;62.65
77739;BME280;66904;59.926;30.404;2023-11-21T21:08:00;102538.44;;;-1.87;63.00
77739;BME280;66904;59.926;30.404;2023-11-21T21:13:11;102535.78;;;-1.98;63.36
77739;BME280;66904;59.926;30.404;2023-11-21T21:18:24;102529.69;;;-2.08;63.52
77739;BME280;66904;59.926;30.404;2023-11-21T21:23:37;102537.44;;;-2.11;63.99
77739;BME280;66904;59.926;30.404;2023-11-21T21:28:51;102532.19;;;-2.18;63.64
77739;BME280;66904;59.926;30.404;2023-11-21T21:34:02;102537.41;;;-2.15;64.00
77739;BME280;66904;59.926;30.404;2023-11-21T21:39:13;102539.09;;;-2.20;63.77
77739;BME280;66904;59.926;30.404;2023-11-21T21:44:24;102544.28;;;-2.20;63.70
77739;BME280;66904;59.926;30.404;2023-11-21T21:49:36;102539.94;;;-2.23;63.61
77739;BME280;66904;59.926;30.404;2023-11-21T21:54:48;102539.09;;;-2.23;64.45
77739;BME280;66904;59.926;30.404;2023-11-21T21:59:58;102539.94;;;-2.24;64.08
77739;BME280;66904;59.926;30.404;2023-11-21T22:05:10;102547.72;;;-2.23;63.78
77739;BME280;66904;59.926;30.404;2023-11-21T22:10:22;102534.72;;;-2.27;64.08
77739;BME280;66904;59.926;30.404;2023-11-21T22:15:33;102540.84;;;-2.18;64.47
77739;BME280;66904;59.926;30.404;2023-11-21T22:20:44;102546.91;;;-2.14;64.41
77739;BME280;66904;59.926;30.404;2023-11-21T22:25:55;102541.69;;;-2.19;64.56
77739;BME280;66904;59.926;30.404;2023-11-21T22:31:06;102543.44;;;-2.18;63.82
77739;BME280;66904;59.926;30.404;2023-11-21T22:36:16;102538.25;;;-2.19;64.38
77739;BME280;66904;59.926;30.404;2023-11-21T22:41:27;102546.06;;;-2.16;64.34
77739;BME280;66904;59.926;30.404;2023-11-21T22:46:42;102545.16;;;-2.18;64.53
77739;BME280;66904;59.926;30.404;2023-11-21T22:51:55;102539.97;;;-2.20;64.46
77739;BME280;66904;59.926;30.404;2023-11-21T22:57:06;102536.50;;;-2.19;64.69
77739;BME280;66904;59.926;30.404;2023-11-21T23:02:17;102542.56;;;-2.20;64.43
77739;BME280;66904;59.926;30.404;2023-11-21T23:07:29;102548.59;;;-2.21;64.56
77739;BME280;66904;59.926;30.404;2023-11-21T23:12:39;102547.69;;;-2.24;64.66
77739;BME280;66904;59.926;30.404;2023-11-21T23:17:50;102544.25;;;-2.23;64.78
77739;BME280;66904;59.926;30.404;2023-11-21T23:23:01;102544.16;;;-2.37;64.84
77739;BME280;66904;59.926;30.404;2023-11-21T23:28:12;102545.88;;;-2.37;64.23
77739;BME280;66904;59.926;30.404;2023-11-21T23:33:23;102548.50;;;-2.36;64.83
77739;BME280;66904;59.926;30.404;2023-11-21T23:38:37;102550.19;;;-2.38;64.36
77739;BME280;66904;59.926;30.404;2023-11-21T23:43:51;102552.78;;;-2.39;64.64
77739;BME280;66904;59.926;30.404;2023-11-21T23:49:01;102552.72;;;-2.45;64.90
77739;BME280;66904;59.926;30.404;2023-11-21T23:54:15;102555.28;;;-2.48;64.81
77739;BME280;66904;59.926;30.404;2023-11-21T23:59:26;102558.75;;;-2.45;64.97
